sensor_id;sensor_type;location;lat;lon;timestamp;temperature;humidity
25556;DHT22;13447;57.174;-2.112;2023-07-28T00:01:55;15.20;1.00
25556;DHT22;13447;57.174;-2.112;2023-07-28T00:04:22;15.20;1.00
25556;DHT22;13447;57.174;-2.112;2023-07-28T00:06:49;15.20;1.00
25556;DHT22;13447;57.174;-2.112;2023-07-28T00:09:16;15.20;1.00
25556;DHT22;13447;57.174;-2.112;2023-07-28T00:11:43;15.20;1.00
25556;DHT22;13447;57.174;-2.112;2023-07-28T00:14:10;15.20;1.00
25556;DHT22;13447;57.174;-2.112;2023-07-28T00:16:36;15.20;1.00
25556;DHT22;13447;57.174;-2.112;2023-07-28T00:19:04;15.20;1.00
25556;DHT22;13447;57.174;-2.112;2023-07-28T00:21:31;15.20;1.00
25556;DHT22;13447;57.174;-2.112;2023-07-28T00:23:58;15.20;1.00
25556;DHT22;13447;57.174;-2.112;2023-07-28T00:26:24;15.20;1.00
25556;DHT22;13447;57.174;-2.112;2023-07-28T00:28:51;15.20;1.00
25556;DHT22;13447;57.174;-2.112;2023-07-28T00:31:18;15.20;1.00
25556;DHT22;13447;57.174;-2.112;2023-07-28T00:33:45;15.20;1.00
25556;DHT22;13447;57.174;-2.112;2023-07-28T00:36:12;15.20;1.00
25556;DHT22;13447;57.174;-2.112;2023-07-28T00:38:39;15.10;1.00
25556;DHT22;13447;57.174;-2.112;2023-07-28T00:41:05;15.10;1.00
25556;DHT22;13447;57.174;-2.112;2023-07-28T00:43:32;15.20;1.00
25556;DHT22;13447;57.174;-2.112;2023-07-28T00:45:59;15.20;1.00
25556;DHT22;13447;57.174;-2.112;2023-07-28T00:48:26;15.20;1.00
25556;DHT22;13447;57.174;-2.112;2023-07-28T00:50:53;15.10;1.00
25556;DHT22;13447;57.174;-2.112;2023-07-28T00:53:21;15.20;1.00
25556;DHT22;13447;57.174;-2.112;2023-07-28T00:55:48;15.20;1.00
25556;DHT22;13447;57.174;-2.112;2023-07-28T00:58:15;15.20;1.00
25556;DHT22;13447;57.174;-2.112;2023-07-28T01:00:42;15.20;1.00
25556;DHT22;13447;57.174;-2.112;2023-07-28T01:03:09;15.20;1.00
25556;DHT22;13447;57.174;-2.112;2023-07-28T01:08:19;15.20;1.00
25556;DHT22;13447;57.174;-2.112;2023-07-28T01:10:49;15.20;1.00
25556;DHT22;13447;57.174;-2.112;2023-07-28T01:13:16;15.20;1.00
25556;DHT22;13447;57.174;-2.112;2023-07-28T01:15:42;15.20;1.00
25556;DHT22;13447;57.174;-2.112;2023-07-28T01:18:09;15.20;1.00
25556;DHT22;13447;57.174;-2.112;2023-07-28T01:20:36;15.10;1.00
25556;DHT22;13447;57.174;-2.112;2023-07-28T01:23:08;15.10;1.00
25556;DHT22;13447;57.174;-2.112;2023-07-28T01:28:21;15.20;1.00
25556;DHT22;13447;57.174;-2.112;2023-07-28T01:30:48;15.20;1.00
25556;DHT22;13447;57.174;-2.112;2023-07-28T01:33:15;15.20;1.00
25556;DHT22;13447;57.174;-2.112;2023-07-28T01:35:42;15.20;1.00
25556;DHT22;13447;57.174;-2.112;2023-07-28T01:38:09;15.20;1.00
25556;DHT22;13447;57.174;-2.112;2023-07-28T01:40:35;15.20;1.00
25556;DHT22;13447;57.174;-2.112;2023-07-28T01:43:02;15.20;1.00
25556;DHT22;13447;57.174;-2.112;2023-07-28T01:45:29;15.20;1.00
25556;DHT22;13447;57.174;-2.112;2023-07-28T01:47:56;15.10;1.00
25556;DHT22;13447;57.174;-2.112;2023-07-28T01:50:23;15.10;1.00
25556;DHT22;13447;57.174;-2.112;2023-07-28T01:52:49;15.10;1.00
25556;DHT22;13447;57.174;-2.112;2023-07-28T01:55:16;15.10;1.00
25556;DHT22;13447;57.174;-2.112;2023-07-28T01:57:49;15.10;1.00
25556;DHT22;13447;57.174;-2.112;2023-07-28T02:00:17;15.00;1.00
25556;DHT22;13447;57.174;-2.112;2023-07-28T02:02:44;15.00;1.00
25556;DHT22;13447;57.174;-2.112;2023-07-28T02:05:10;15.00;1.00
25556;DHT22;13447;57.174;-2.112;2023-07-28T02:07:37;15.00;1.00
25556;DHT22;13447;57.174;-2.112;2023-07-28T02:10:04;15.00;1.00
25556;DHT22;13447;57.174;-2.112;2023-07-28T02:12:31;15.00;1.00
25556;DHT22;13447;57.174;-2.112;2023-07-28T02:14:58;15.00;1.00
25556;DHT22;13447;57.174;-2.112;2023-07-28T02:17:25;14.90;1.00
25556;DHT22;13447;57.174;-2.112;2023-07-28T02:19:52;14.90;1.00
25556;DHT22;13447;57.174;-2.112;2023-07-28T02:22:18;14.90;1.00
25556;DHT22;13447;57.174;-2.112;2023-07-28T02:24:45;14.90;1.00
25556;DHT22;13447;57.174;-2.112;2023-07-28T02:27:12;14.90;1.00
25556;DHT22;13447;57.174;-2.112;2023-07-28T02:29:39;14.80;1.00
25556;DHT22;13447;57.174;-2.112;2023-07-28T02:32:06;14.80;1.00
25556;DHT22;13447;57.174;-2.112;2023-07-28T02:34:32;14.90;1.00
25556;DHT22;13447;57.174;-2.112;2023-07-28T02:36:59;14.90;1.00
25556;DHT22;13447;57.174;-2.112;2023-07-28T02:39:26;14.90;1.00
25556;DHT22;13447;57.174;-2.112;2023-07-28T02:41:53;14.90;1.00
25556;DHT22;13447;57.174;-2.112;2023-07-28T02:44:20;14.90;1.00
25556;DHT22;13447;57.174;-2.112;2023-07-28T02:46:46;14.90;1.00
25556;DHT22;13447;57.174;-2.112;2023-07-28T02:49:13;14.80;1.00
25556;DHT22;13447;57.174;-2.112;2023-07-28T02:51:40;14.90;1.00
25556;DHT22;13447;57.174;-2.112;2023-07-28T02:54:08;14.90;1.00
25556;DHT22;13447;57.174;-2.112;2023-07-28T02:56:35;14.90;1.00
25556;DHT22;13447;57.174;-2.112;2023-07-28T02:59:04;14.90;1.00
25556;DHT22;13447;57.174;-2.112;2023-07-28T03:01:31;14.90;1.00
25556;DHT22;13447;57.174;-2.112;2023-07-28T03:04:02;14.90;1.00
25556;DHT22;13447;57.174;-2.112;2023-07-28T03:06:29;14.90;1.00
25556;DHT22;13447;57.174;-2.112;2023-07-28T03:08:55;14.90;1.00
25556;DHT22;13447;57.174;-2.112;2023-07-28T03:11:24;14.90;1.00
25556;DHT22;13447;57.174;-2.112;2023-07-28T03:13:51;14.90;1.00
25556;DHT22;13447;57.174;-2.112;2023-07-28T03:16:18;14.90;1.00
25556;DHT22;13447;57.174;-2.112;2023-07-28T03:18:45;14.90;1.00
25556;DHT22;13447;57.174;-2.112;2023-07-28T03:21:11;14.90;1.00
25556;DHT22;13447;57.174;-2.112;2023-07-28T03:23:38;14.90;1.00
25556;DHT22;13447;57.174;-2.112;2023-07-28T03:26:05;15.00;1.00
25556;DHT22;13447;57.174;-2.112;2023-07-28T03:28:32;14.90;1.00
25556;DHT22;13447;57.174;-2.112;2023-07-28T03:30:58;14.90;1.00
25556;DHT22;13447;57.174;-2.112;2023-07-28T03:33:25;15.00;1.00
25556;DHT22;13447;57.174;-2.112;2023-07-28T03:35:52;15.00;1.00
25556;DHT22;13447;57.174;-2.112;2023-07-28T03:38:19;15.00;1.00
25556;DHT22;13447;57.174;-2.112;2023-07-28T03:40:46;15.00;1.00
25556;DHT22;13447;57.174;-2.112;2023-07-28T03:43:12;15.00;1.00
25556;DHT22;13447;57.174;-2.112;2023-07-28T03:45:39;15.00;1.00
25556;DHT22;13447;57.174;-2.112;2023-07-28T03:48:06;15.00;1.00
25556;DHT22;13447;57.174;-2.112;2023-07-28T03:50:33;15.00;1.00
25556;DHT22;13447;57.174;-2.112;2023-07-28T03:53:00;15.10;1.00
25556;DHT22;13447;57.174;-2.112;2023-07-28T03:55:27;15.00;1.00
25556;DHT22;13447;57.174;-2.112;2023-07-28T03:57:53;15.10;1.00
25556;DHT22;13447;57.174;-2.112;2023-07-28T04:00:20;15.10;1.00
25556;DHT22;13447;57.174;-2.112;2023-07-28T04:02:47;15.00;1.00
25556;DHT22;13447;57.174;-2.112;2023-07-28T04:05:14;15.00;1.00
25556;DHT22;13447;57.174;-2.112;2023-07-28T04:07:41;15.10;1.00
25556;DHT22;13447;57.174;-2.112;2023-07-28T04:10:07;15.10;1.00
25556;DHT22;13447;57.174;-2.112;2023-07-28T04:12:34;15.10;1.00
25556;DHT22;13447;57.174;-2.112;2023-07-28T04:15:01;15.00;1.00
25556;DHT22;13447;57.174;-2.112;2023-07-28T04:17:28;15.00;1.00
25556;DHT22;13447;57.174;-2.112;2023-07-28T04:19:55;15.00;1.00
25556;DHT22;13447;57.174;-2.112;2023-07-28T04:22:22;15.00;1.00
25556;DHT22;13447;57.174;-2.112;2023-07-28T04:24:48;15.10;1.00
25556;DHT22;13447;57.174;-2.112;2023-07-28T04:27:15;15.10;1.00
25556;DHT22;13447;57.174;-2.112;2023-07-28T04:29:42;15.10;1.00
25556;DHT22;13447;57.174;-2.112;2023-07-28T04:32:09;15.10;1.00
25556;DHT22;13447;57.174;-2.112;2023-07-28T04:34:35;15.10;1.00
25556;DHT22;13447;57.174;-2.112;2023-07-28T04:37:02;15.10;1.00
25556;DHT22;13447;57.174;-2.112;2023-07-28T04:39:29;15.10;1.00
25556;DHT22;13447;57.174;-2.112;2023-07-28T04:41:56;15.10;1.00
25556;DHT22;13447;57.174;-2.112;2023-07-28T04:44:23;15.10;1.00
25556;DHT22;13447;57.174;-2.112;2023-07-28T04:46:49;15.00;1.00
25556;DHT22;13447;57.174;-2.112;2023-07-28T04:49:16;15.10;1.00
25556;DHT22;13447;57.174;-2.112;2023-07-28T04:51:43;15.10;1.00
25556;DHT22;13447;57.174;-2.112;2023-07-28T04:54:10;15.10;1.00
25556;DHT22;13447;57.174;-2.112;2023-07-28T04:56:36;15.10;1.00
25556;DHT22;13447;57.174;-2.112;2023-07-28T04:59:03;15.10;1.00
25556;DHT22;13447;57.174;-2.112;2023-07-28T05:01:31;15.10;1.00
25556;DHT22;13447;57.174;-2.112;2023-07-28T05:03:58;15.10;1.00
25556;DHT22;13447;57.174;-2.112;2023-07-28T05:06:24;15.10;1.00
25556;DHT22;13447;57.174;-2.112;2023-07-28T05:08:51;15.10;1.00
25556;DHT22;13447;57.174;-2.112;2023-07-28T05:11:18;15.20;1.00
25556;DHT22;13447;57.174;-2.112;2023-07-28T05:13:45;15.20;1.00
25556;DHT22;13447;57.174;-2.112;2023-07-28T05:16:12;15.20;1.00
25556;DHT22;13447;57.174;-2.112;2023-07-28T05:18:39;15.20;1.00
25556;DHT22;13447;57.174;-2.112;2023-07-28T05:21:06;15.30;1.00
25556;DHT22;13447;57.174;-2.112;2023-07-28T05:23:32;15.20;1.00
25556;DHT22;13447;57.174;-2.112;2023-07-28T05:25:59;15.20;1.00
25556;DHT22;13447;57.174;-2.112;2023-07-28T05:28:26;15.20;1.00
25556;DHT22;13447;57.174;-2.112;2023-07-28T05:30:53;15.30;1.00
25556;DHT22;13447;57.174;-2.112;2023-07-28T05:33:19;15.30;1.00
25556;DHT22;13447;57.174;-2.112;2023-07-28T05:35:46;15.40;1.00
25556;DHT22;13447;57.174;-2.112;2023-07-28T05:38:13;15.30;1.00
25556;DHT22;13447;57.174;-2.112;2023-07-28T05:40:40;15.40;1.00
25556;DHT22;13447;57.174;-2.112;2023-07-28T05:43:07;15.30;1.00
25556;DHT22;13447;57.174;-2.112;2023-07-28T05:45:34;15.30;1.00
25556;DHT22;13447;57.174;-2.112;2023-07-28T05:48:00;15.30;1.00
25556;DHT22;13447;57.174;-2.112;2023-07-28T05:50:27;15.40;1.00
25556;DHT22;13447;57.174;-2.112;2023-07-28T05:52:54;15.30;1.00
25556;DHT22;13447;57.174;-2.112;2023-07-28T05:55:21;15.30;1.00
25556;DHT22;13447;57.174;-2.112;2023-07-28T05:57:48;15.40;1.00
25556;DHT22;13447;57.174;-2.112;2023-07-28T06:00:14;15.40;1.00
25556;DHT22;13447;57.174;-2.112;2023-07-28T06:02:41;15.50;1.00
25556;DHT22;13447;57.174;-2.112;2023-07-28T06:05:08;15.60;1.00
25556;DHT22;13447;57.174;-2.112;2023-07-28T06:07:35;15.60;1.00
25556;DHT22;13447;57.174;-2.112;2023-07-28T06:10:02;15.60;1.00
25556;DHT22;13447;57.174;-2.112;2023-07-28T06:12:29;15.60;1.00
25556;DHT22;13447;57.174;-2.112;2023-07-28T06:14:56;15.60;1.00
25556;DHT22;13447;57.174;-2.112;2023-07-28T06:17:23;15.50;1.00
25556;DHT22;13447;57.174;-2.112;2023-07-28T06:19:49;15.50;1.00
25556;DHT22;13447;57.174;-2.112;2023-07-28T06:22:16;15.50;1.00
25556;DHT22;13447;57.174;-2.112;2023-07-28T06:24:43;15.60;1.00
25556;DHT22;13447;57.174;-2.112;2023-07-28T06:27:10;15.70;1.00
25556;DHT22;13447;57.174;-2.112;2023-07-28T06:29:37;15.70;1.00
25556;DHT22;13447;57.174;-2.112;2023-07-28T06:32:03;15.70;1.00
25556;DHT22;13447;57.174;-2.112;2023-07-28T06:34:30;15.70;1.00
25556;DHT22;13447;57.174;-2.112;2023-07-28T06:36:57;15.70;1.00
25556;DHT22;13447;57.174;-2.112;2023-07-28T06:39:24;15.70;1.00
25556;DHT22;13447;57.174;-2.112;2023-07-28T06:41:51;15.70;1.00
25556;DHT22;13447;57.174;-2.112;2023-07-28T06:44:18;15.60;1.00
25556;DHT22;13447;57.174;-2.112;2023-07-28T06:46:44;15.70;1.00
25556;DHT22;13447;57.174;-2.112;2023-07-28T06:49:11;15.70;1.00
25556;DHT22;13447;57.174;-2.112;2023-07-28T06:51:38;15.70;1.00
25556;DHT22;13447;57.174;-2.112;2023-07-28T06:54:05;15.70;1.00
25556;DHT22;13447;57.174;-2.112;2023-07-28T06:56:36;15.80;1.00
25556;DHT22;13447;57.174;-2.112;2023-07-28T06:59:03;15.80;1.00
25556;DHT22;13447;57.174;-2.112;2023-07-28T07:01:41;15.80;1.00
25556;DHT22;13447;57.174;-2.112;2023-07-28T07:04:08;15.80;1.00
25556;DHT22;13447;57.174;-2.112;2023-07-28T07:06:35;15.90;1.00
25556;DHT22;13447;57.174;-2.112;2023-07-28T07:09:02;16.00;1.00
25556;DHT22;13447;57.174;-2.112;2023-07-28T07:11:29;16.00;1.00
25556;DHT22;13447;57.174;-2.112;2023-07-28T07:16:23;16.00;1.00
25556;DHT22;13447;57.174;-2.112;2023-07-28T07:18:51;16.10;1.00
25556;DHT22;13447;57.174;-2.112;2023-07-28T07:21:17;16.20;1.00
25556;DHT22;13447;57.174;-2.112;2023-07-28T07:23:44;16.20;1.00
25556;DHT22;13447;57.174;-2.112;2023-07-28T07:26:11;16.30;1.00
25556;DHT22;13447;57.174;-2.112;2023-07-28T07:28:38;16.40;1.00
25556;DHT22;13447;57.174;-2.112;2023-07-28T07:31:11;16.50;1.00
25556;DHT22;13447;57.174;-2.112;2023-07-28T07:33:37;16.60;1.00
25556;DHT22;13447;57.174;-2.112;2023-07-28T07:36:04;16.70;1.00
25556;DHT22;13447;57.174;-2.112;2023-07-28T07:38:31;16.70;1.00
25556;DHT22;13447;57.174;-2.112;2023-07-28T07:40:58;16.80;1.00
25556;DHT22;13447;57.174;-2.112;2023-07-28T07:43:25;16.80;1.00
25556;DHT22;13447;57.174;-2.112;2023-07-28T07:45:52;16.80;1.00
25556;DHT22;13447;57.174;-2.112;2023-07-28T07:48:21;16.80;1.00
25556;DHT22;13447;57.174;-2.112;2023-07-28T07:50:48;16.90;1.00
25556;DHT22;13447;57.174;-2.112;2023-07-28T07:53:14;17.00;1.00
25556;DHT22;13447;57.174;-2.112;2023-07-28T07:55:42;17.00;1.00
25556;DHT22;13447;57.174;-2.112;2023-07-28T07:58:08;16.90;1.00
25556;DHT22;13447;57.174;-2.112;2023-07-28T08:00:38;17.00;1.00
25556;DHT22;13447;57.174;-2.112;2023-07-28T08:03:05;17.00;1.00
25556;DHT22;13447;57.174;-2.112;2023-07-28T08:05:32;17.00;1.00
25556;DHT22;13447;57.174;-2.112;2023-07-28T08:07:58;17.00;1.00
25556;DHT22;13447;57.174;-2.112;2023-07-28T08:10:25;17.00;1.00
25556;DHT22;13447;57.174;-2.112;2023-07-28T08:12:53;17.00;1.00
25556;DHT22;13447;57.174;-2.112;2023-07-28T08:15:20;17.10;1.00
25556;DHT22;13447;57.174;-2.112;2023-07-28T08:17:47;17.20;1.00
25556;DHT22;13447;57.174;-2.112;2023-07-28T08:20:13;17.20;1.00
25556;DHT22;13447;57.174;-2.112;2023-07-28T08:22:40;17.20;1.00
25556;DHT22;13447;57.174;-2.112;2023-07-28T08:25:07;17.20;1.00
25556;DHT22;13447;57.174;-2.112;2023-07-28T08:27:34;17.30;1.00
25556;DHT22;13447;57.174;-2.112;2023-07-28T08:30:02;17.40;1.00
25556;DHT22;13447;57.174;-2.112;2023-07-28T08:32:29;17.40;1.00
25556;DHT22;13447;57.174;-2.112;2023-07-28T08:34:56;17.40;1.00
25556;DHT22;13447;57.174;-2.112;2023-07-28T08:37:22;17.50;1.00
25556;DHT22;13447;57.174;-2.112;2023-07-28T08:39:49;17.50;1.00
25556;DHT22;13447;57.174;-2.112;2023-07-28T08:42:16;17.50;1.00
25556;DHT22;13447;57.174;-2.112;2023-07-28T08:44:43;17.50;1.00
25556;DHT22;13447;57.174;-2.112;2023-07-28T08:47:11;17.60;1.00
25556;DHT22;13447;57.174;-2.112;2023-07-28T08:49:38;17.70;1.00
25556;DHT22;13447;57.174;-2.112;2023-07-28T08:52:05;17.90;1.00
25556;DHT22;13447;57.174;-2.112;2023-07-28T08:54:32;18.30;1.00
25556;DHT22;13447;57.174;-2.112;2023-07-28T08:56:59;18.50;1.00
25556;DHT22;13447;57.174;-2.112;2023-07-28T08:59:26;18.60;1.00
25556;DHT22;13447;57.174;-2.112;2023-07-28T09:01:54;18.90;1.00
25556;DHT22;13447;57.174;-2.112;2023-07-28T09:04:22;19.10;1.00
25556;DHT22;13447;57.174;-2.112;2023-07-28T09:06:49;19.20;1.00
25556;DHT22;13447;57.174;-2.112;2023-07-28T09:09:18;19.20;99.90
25556;DHT22;13447;57.174;-2.112;2023-07-28T09:11:49;19.80;99.90
25556;DHT22;13447;57.174;-2.112;2023-07-28T09:14:16;20.00;99.90
25556;DHT22;13447;57.174;-2.112;2023-07-28T09:16:43;20.10;99.90
25556;DHT22;13447;57.174;-2.112;2023-07-28T09:19:10;19.60;99.90
25556;DHT22;13447;57.174;-2.112;2023-07-28T09:21:38;19.70;99.90
25556;DHT22;13447;57.174;-2.112;2023-07-28T09:24:12;19.80;99.90
25556;DHT22;13447;57.174;-2.112;2023-07-28T09:26:48;20.40;99.90
25556;DHT22;13447;57.174;-2.112;2023-07-28T09:29:18;20.50;99.90
25556;DHT22;13447;57.174;-2.112;2023-07-28T09:31:46;20.50;99.90
25556;DHT22;13447;57.174;-2.112;2023-07-28T09:34:15;21.10;99.90
25556;DHT22;13447;57.174;-2.112;2023-07-28T09:36:49;21.20;99.90
25556;DHT22;13447;57.174;-2.112;2023-07-28T09:39:19;20.70;99.90
25556;DHT22;13447;57.174;-2.112;2023-07-28T09:41:46;20.80;99.90
25556;DHT22;13447;57.174;-2.112;2023-07-28T09:44:14;21.30;99.90
25556;DHT22;13447;57.174;-2.112;2023-07-28T09:49:11;21.20;99.90
25556;DHT22;13447;57.174;-2.112;2023-07-28T09:51:39;21.40;91.00
25556;DHT22;13447;57.174;-2.112;2023-07-28T09:54:19;21.20;99.90
25556;DHT22;13447;57.174;-2.112;2023-07-28T09:56:51;20.90;99.90
25556;DHT22;13447;57.174;-2.112;2023-07-28T09:59:19;20.90;99.90
25556;DHT22;13447;57.174;-2.112;2023-07-28T10:01:46;21.30;99.90
25556;DHT22;13447;57.174;-2.112;2023-07-28T10:04:14;21.70;99.90
25556;DHT22;13447;57.174;-2.112;2023-07-28T10:06:41;21.80;33.50
25556;DHT22;13447;57.174;-2.112;2023-07-28T10:09:09;21.90;1.00
25556;DHT22;13447;57.174;-2.112;2023-07-28T10:11:38;22.10;1.00
25556;DHT22;13447;57.174;-2.112;2023-07-28T10:14:06;22.80;1.00
25556;DHT22;13447;57.174;-2.112;2023-07-28T10:16:39;22.80;1.00
25556;DHT22;13447;57.174;-2.112;2023-07-28T10:19:06;23.30;1.00
25556;DHT22;13447;57.174;-2.112;2023-07-28T10:21:33;23.00;1.00
25556;DHT22;13447;57.174;-2.112;2023-07-28T10:24:05;22.70;1.00
25556;DHT22;13447;57.174;-2.112;2023-07-28T10:26:36;23.00;1.00
25556;DHT22;13447;57.174;-2.112;2023-07-28T10:29:07;22.90;1.00
25556;DHT22;13447;57.174;-2.112;2023-07-28T10:31:35;23.20;1.00
25556;DHT22;13447;57.174;-2.112;2023-07-28T10:34:03;23.20;1.00
25556;DHT22;13447;57.174;-2.112;2023-07-28T10:39:00;23.60;1.00
25556;DHT22;13447;57.174;-2.112;2023-07-28T10:41:27;23.80;1.00
25556;DHT22;13447;57.174;-2.112;2023-07-28T10:43:54;23.60;1.00
25556;DHT22;13447;57.174;-2.112;2023-07-28T10:46:21;23.70;1.00
25556;DHT22;13447;57.174;-2.112;2023-07-28T10:48:49;24.40;1.00
25556;DHT22;13447;57.174;-2.112;2023-07-28T10:51:23;24.60;99.90
25556;DHT22;13447;57.174;-2.112;2023-07-28T10:53:54;24.80;1.00
25556;DHT22;13447;57.174;-2.112;2023-07-28T10:56:22;24.40;1.00
25556;DHT22;13447;57.174;-2.112;2023-07-28T10:59:01;24.30;1.00
25556;DHT22;13447;57.174;-2.112;2023-07-28T11:01:35;23.90;1.00
25556;DHT22;13447;57.174;-2.112;2023-07-28T11:04:10;23.30;1.00
25556;DHT22;13447;57.174;-2.112;2023-07-28T11:06:37;23.00;1.00
25556;DHT22;13447;57.174;-2.112;2023-07-28T11:09:08;23.60;1.00
25556;DHT22;13447;57.174;-2.112;2023-07-28T11:11:39;23.30;1.00
25556;DHT22;13447;57.174;-2.112;2023-07-28T11:14:09;23.40;1.00
25556;DHT22;13447;57.174;-2.112;2023-07-28T11:16:36;23.70;1.00
25556;DHT22;13447;57.174;-2.112;2023-07-28T11:19:07;23.20;99.90
25556;DHT22;13447;57.174;-2.112;2023-07-28T11:21:37;23.00;99.90
25556;DHT22;13447;57.174;-2.112;2023-07-28T11:24:04;23.30;99.90
25556;DHT22;13447;57.174;-2.112;2023-07-28T11:26:31;24.00;99.90
25556;DHT22;13447;57.174;-2.112;2023-07-28T11:28:59;24.20;99.90
25556;DHT22;13447;57.174;-2.112;2023-07-28T11:31:26;24.10;99.90
25556;DHT22;13447;57.174;-2.112;2023-07-28T11:33:54;24.00;99.90
25556;DHT22;13447;57.174;-2.112;2023-07-28T11:36:24;24.50;99.90
25556;DHT22;13447;57.174;-2.112;2023-07-28T11:38:51;24.50;99.90
25556;DHT22;13447;57.174;-2.112;2023-07-28T11:41:19;24.70;99.90
25556;DHT22;13447;57.174;-2.112;2023-07-28T11:43:49;24.30;99.90
25556;DHT22;13447;57.174;-2.112;2023-07-28T11:46:35;23.90;99.90
25556;DHT22;13447;57.174;-2.112;2023-07-28T11:49:21;23.30;99.90
25556;DHT22;13447;57.174;-2.112;2023-07-28T11:51:53;23.70;99.90
25556;DHT22;13447;57.174;-2.112;2023-07-28T11:54:21;23.90;99.90
25556;DHT22;13447;57.174;-2.112;2023-07-28T11:56:49;24.50;99.90
25556;DHT22;13447;57.174;-2.112;2023-07-28T11:59:16;24.40;99.90
25556;DHT22;13447;57.174;-2.112;2023-07-28T12:01:57;23.80;99.90
25556;DHT22;13447;57.174;-2.112;2023-07-28T12:04:37;24.10;99.90
25556;DHT22;13447;57.174;-2.112;2023-07-28T12:07:08;24.10;99.90
25556;DHT22;13447;57.174;-2.112;2023-07-28T12:12:29;23.30;99.90
25556;DHT22;13447;57.174;-2.112;2023-07-28T12:15:20;23.20;99.90
25556;DHT22;13447;57.174;-2.112;2023-07-28T12:18:03;24.00;99.90
25556;DHT22;13447;57.174;-2.112;2023-07-28T12:20:36;24.10;99.90
25556;DHT22;13447;57.174;-2.112;2023-07-28T12:23:06;24.40;99.90
25556;DHT22;13447;57.174;-2.112;2023-07-28T12:25:36;24.70;99.90
25556;DHT22;13447;57.174;-2.112;2023-07-28T12:28:03;24.40;99.90
25556;DHT22;13447;57.174;-2.112;2023-07-28T12:30:31;24.10;99.90
25556;DHT22;13447;57.174;-2.112;2023-07-28T12:32:58;23.90;99.90
25556;DHT22;13447;57.174;-2.112;2023-07-28T12:35:29;23.60;99.90
25556;DHT22;13447;57.174;-2.112;2023-07-28T12:38:04;23.40;1.00
25556;DHT22;13447;57.174;-2.112;2023-07-28T12:40:51;23.30;1.00
25556;DHT22;13447;57.174;-2.112;2023-07-28T12:43:21;23.10;1.00
25556;DHT22;13447;57.174;-2.112;2023-07-28T12:45:52;23.50;1.00
25556;DHT22;13447;57.174;-2.112;2023-07-28T12:48:23;23.30;1.00
25556;DHT22;13447;57.174;-2.112;2023-07-28T12:50:50;23.70;1.00
25556;DHT22;13447;57.174;-2.112;2023-07-28T12:53:29;23.70;1.00
25556;DHT22;13447;57.174;-2.112;2023-07-28T12:55:56;23.90;1.00
25556;DHT22;13447;57.174;-2.112;2023-07-28T12:58:26;23.70;1.00
25556;DHT22;13447;57.174;-2.112;2023-07-28T13:00:55;23.50;1.00
25556;DHT22;13447;57.174;-2.112;2023-07-28T13:03:27;24.00;1.00
25556;DHT22;13447;57.174;-2.112;2023-07-28T13:05:54;24.00;1.00
25556;DHT22;13447;57.174;-2.112;2023-07-28T13:08:21;23.60;1.00
25556;DHT22;13447;57.174;-2.112;2023-07-28T13:11:08;23.40;1.00
25556;DHT22;13447;57.174;-2.112;2023-07-28T13:13:37;23.50;1.00
25556;DHT22;13447;57.174;-2.112;2023-07-28T13:16:05;23.40;1.00
25556;DHT22;13447;57.174;-2.112;2023-07-28T13:18:36;23.60;1.00
25556;DHT22;13447;57.174;-2.112;2023-07-28T13:21:03;24.00;1.00
25556;DHT22;13447;57.174;-2.112;2023-07-28T13:23:29;24.40;1.00
25556;DHT22;13447;57.174;-2.112;2023-07-28T13:25:56;25.00;1.00
25556;DHT22;13447;57.174;-2.112;2023-07-28T13:28:23;24.90;99.90
25556;DHT22;13447;57.174;-2.112;2023-07-28T13:30:52;24.50;1.00
25556;DHT22;13447;57.174;-2.112;2023-07-28T13:33:18;24.50;99.90
25556;DHT22;13447;57.174;-2.112;2023-07-28T13:35:45;24.70;1.00
25556;DHT22;13447;57.174;-2.112;2023-07-28T13:38:12;24.70;99.90
25556;DHT22;13447;57.174;-2.112;2023-07-28T13:40:39;23.80;99.90
25556;DHT22;13447;57.174;-2.112;2023-07-28T13:43:06;22.70;1.00
25556;DHT22;13447;57.174;-2.112;2023-07-28T13:45:32;22.60;1.00
25556;DHT22;13447;57.174;-2.112;2023-07-28T13:47:59;22.30;1.00
25556;DHT22;13447;57.174;-2.112;2023-07-28T13:50:26;22.10;1.00
25556;DHT22;13447;57.174;-2.112;2023-07-28T13:52:56;21.70;1.00
25556;DHT22;13447;57.174;-2.112;2023-07-28T13:55:23;21.90;1.00
25556;DHT22;13447;57.174;-2.112;2023-07-28T13:58:07;21.50;1.00
25556;DHT22;13447;57.174;-2.112;2023-07-28T14:00:33;21.30;1.00
25556;DHT22;13447;57.174;-2.112;2023-07-28T14:03:00;21.30;1.00
25556;DHT22;13447;57.174;-2.112;2023-07-28T14:05:28;21.30;1.00
25556;DHT22;13447;57.174;-2.112;2023-07-28T14:07:54;21.40;1.00
25556;DHT22;13447;57.174;-2.112;2023-07-28T14:10:21;21.60;1.00
25556;DHT22;13447;57.174;-2.112;2023-07-28T14:12:48;21.80;1.00
25556;DHT22;13447;57.174;-2.112;2023-07-28T14:15:15;22.10;1.00
25556;DHT22;13447;57.174;-2.112;2023-07-28T14:17:42;22.20;1.00
25556;DHT22;13447;57.174;-2.112;2023-07-28T14:20:08;22.20;1.00
25556;DHT22;13447;57.174;-2.112;2023-07-28T14:22:36;22.20;1.00
25556;DHT22;13447;57.174;-2.112;2023-07-28T14:25:03;22.30;1.00
25556;DHT22;13447;57.174;-2.112;2023-07-28T14:27:30;22.10;1.00
25556;DHT22;13447;57.174;-2.112;2023-07-28T14:29:57;21.90;1.00
25556;DHT22;13447;57.174;-2.112;2023-07-28T14:32:24;22.00;1.00
25556;DHT22;13447;57.174;-2.112;2023-07-28T14:34:51;21.80;1.00
25556;DHT22;13447;57.174;-2.112;2023-07-28T14:37:18;21.70;1.00
25556;DHT22;13447;57.174;-2.112;2023-07-28T14:39:44;21.70;1.00
25556;DHT22;13447;57.174;-2.112;2023-07-28T14:42:11;21.80;1.00
25556;DHT22;13447;57.174;-2.112;2023-07-28T14:44:38;21.60;1.00
25556;DHT22;13447;57.174;-2.112;2023-07-28T14:47:05;21.50;1.00
25556;DHT22;13447;57.174;-2.112;2023-07-28T14:49:31;21.50;1.00
25556;DHT22;13447;57.174;-2.112;2023-07-28T14:51:58;21.60;1.00
25556;DHT22;13447;57.174;-2.112;2023-07-28T14:54:25;21.60;1.00
25556;DHT22;13447;57.174;-2.112;2023-07-28T14:56:52;21.80;1.00
25556;DHT22;13447;57.174;-2.112;2023-07-28T14:59:19;21.80;1.00
25556;DHT22;13447;57.174;-2.112;2023-07-28T15:01:46;21.70;1.00
25556;DHT22;13447;57.174;-2.112;2023-07-28T15:04:13;21.70;1.00
25556;DHT22;13447;57.174;-2.112;2023-07-28T15:06:42;21.40;1.00
25556;DHT22;13447;57.174;-2.112;2023-07-28T15:09:11;21.30;1.00
25556;DHT22;13447;57.174;-2.112;2023-07-28T15:11:38;21.30;1.00
25556;DHT22;13447;57.174;-2.112;2023-07-28T15:14:05;21.20;1.00
25556;DHT22;13447;57.174;-2.112;2023-07-28T15:16:33;21.20;1.00
25556;DHT22;13447;57.174;-2.112;2023-07-28T15:19:00;21.10;1.00
25556;DHT22;13447;57.174;-2.112;2023-07-28T15:21:27;21.10;1.00
25556;DHT22;13447;57.174;-2.112;2023-07-28T15:23:55;21.00;1.00
25556;DHT22;13447;57.174;-2.112;2023-07-28T15:26:22;20.90;1.00
25556;DHT22;13447;57.174;-2.112;2023-07-28T15:28:49;20.70;1.00
25556;DHT22;13447;57.174;-2.112;2023-07-28T15:31:15;20.60;1.00
25556;DHT22;13447;57.174;-2.112;2023-07-28T15:33:42;20.50;1.00
25556;DHT22;13447;57.174;-2.112;2023-07-28T15:36:09;20.30;25.90
25556;DHT22;13447;57.174;-2.112;2023-07-28T15:38:36;20.20;76.00
25556;DHT22;13447;57.174;-2.112;2023-07-28T15:41:03;20.30;57.90
25556;DHT22;13447;57.174;-2.112;2023-07-28T15:43:30;20.10;77.70
25556;DHT22;13447;57.174;-2.112;2023-07-28T15:45:56;20.20;99.90
25556;DHT22;13447;57.174;-2.112;2023-07-28T15:48:24;20.10;99.90